Time;durP1;ratioP1;P1;durP2;ratioP2;P2;SDS_P1;SDS_P2;PMS_P1;PMS_P2;Temp;Humidity;BMP_temperature;BMP_pressure;BME280_temperature;BME280_humidity;BME280_pressure;Samples;Min_cycle;Max_cycle;Signal;HPM_P1;HPM_P2
2022/11/04 00:02:13;;;;;;;18.35;12.15;;;19.00;99.90;;;;;;5073275;28;20081;-74
2022/11/04 00:04:39;;;;;;;18.63;12.65;;;19.00;99.90;;;;;;5072867;28;20498;-74
2022/11/04 00:08:22;;;;;;;26.23;13.35;;;19.10;99.90;;;;;;5073207;28;20071;-73
2022/11/04 00:09:53;;;;;;;26.80;12.50;;;19.10;99.90;;;;;;5072445;28;20032;-74
2022/11/04 00:12:25;;;;;;;23.17;13.25;;;19.00;99.90;;;;;;5073078;28;20070;-74
2022/11/04 00:14:51;;;;;;;19.20;12.50;;;19.00;99.90;;;;;;5072902;28;20048;-73
2022/11/04 00:17:23;;;;;;;18.70;13.45;;;19.00;99.90;;;;;;5072996;28;20108;-73
2022/11/04 00:33:24;;;;;;;17.75;12.32;;;19.00;99.90;;;;;;5072745;28;20039;-74
2022/11/04 00:33:45;;;;;;;17.67;11.85;;;19.00;99.90;;;;;;5072329;28;20528;-74
2022/11/04 00:36:13;;;;;;;15.13;12.05;;;19.00;99.90;;;;;;5072322;28;20115;-74
2022/11/04 00:38:40;;;;;;;18.80;12.93;;;19.00;99.90;;;;;;5072720;28;20029;-74
2022/11/04 00:41:25;;;;;;;17.90;12.57;;;19.00;99.90;;;;;;5071987;28;20032;-74
2022/11/04 00:43:55;;;;;;;23.10;13.70;;;19.00;99.90;;;;;;5072234;28;20016;-74
2022/11/04 00:46:22;;;;;;;21.35;15.40;;;18.90;99.90;;;;;;5054090;28;20098;-73
2022/11/04 00:48:48;;;;;;;22.70;15.15;;;18.90;99.90;;;;;;5072171;28;20020;-73
2022/11/04 00:51:15;;;;;;;19.98;14.73;;;18.90;99.90;;;;;;5072320;28;20048;-74
2022/11/04 00:53:47;;;;;;;;;;;18.90;99.90;;;;;;5071879;28;20029;-74
2022/11/04 00:56:13;;;;;;;20.65;14.23;;;18.90;99.90;;;;;;5071980;28;20361;-73
2022/11/04 00:58:39;;;;;;;19.63;13.25;;;18.90;99.90;;;;;;5072432;28;20357;-73
2022/11/04 01:01:10;;;;;;;24.52;13.20;;;18.90;99.90;;;;;;5071815;28;20032;-73
2022/11/04 01:03:37;;;;;;;20.20;13.77;;;18.90;99.90;;;;;;5053648;28;20503;-72
2022/11/04 01:06:03;;;;;;;20.50;12.40;;;18.90;99.90;;;;;;5072106;28;20111;-74
2022/11/04 01:08:31;;;;;;;20.05;12.90;;;18.90;99.90;;;;;;5071476;28;20050;-74
2022/11/04 01:11:02;;;;;;;19.58;13.40;;;18.90;99.90;;;;;;5071975;28;20039;-73
2022/11/04 01:13:29;;;;;;;21.23;14.05;;;18.90;99.90;;;;;;5070165;28;20028;-74
2022/11/04 01:16:02;;;;;;;17.58;13.70;;;18.90;99.90;;;;;;5071590;28;20021;-73
2022/11/04 01:18:28;;;;;;;22.65;13.48;;;18.90;99.90;;;;;;5071611;28;20392;-73
2022/11/04 01:21:00;;;;;;;20.13;13.40;;;18.80;99.90;;;;;;5071213;28;20040;-74
2022/11/04 01:23:47;;;;;;;22.58;13.32;;;18.80;99.90;;;;;;5071517;28;20118;-74
2022/11/04 01:26:15;;;;;;;18.73;11.55;;;18.80;99.90;;;;;;5071459;28;20021;-74
2022/11/04 01:28:44;;;;;;;20.23;12.05;;;18.80;99.90;;;;;;5071302;28;20032;-73
2022/11/04 01:31:17;;;;;;;17.58;13.18;;;18.80;99.90;;;;;;5071814;28;20017;-73
2022/11/04 01:33:44;;;;;;;17.38;11.05;;;18.80;99.90;;;;;;5038074;28;20056;-74
2022/11/04 01:36:10;;;;;;;19.30;11.77;;;18.80;99.90;;;;;;5071345;28;20350;-74
2022/11/04 01:38:38;;;;;;;14.77;10.63;;;18.80;99.90;;;;;;5053387;28;20119;-74
2022/11/04 01:41:05;;;;;;;19.23;11.45;;;18.80;99.90;;;;;;5071323;28;20040;-73
2022/11/04 01:43:51;;;;;;;16.60;10.40;;;18.80;99.90;;;;;;5053165;28;20082;-74
2022/11/04 01:46:46;;;;;;;17.90;9.75;;;18.90;99.90;;;;;;5071605;28;20119;-74
2022/11/04 01:49:35;;;;;;;21.20;10.60;;;18.80;99.90;;;;;;5068682;28;20039;-74
2022/11/04 01:52:14;;;;;;;17.75;9.98;;;18.90;99.90;;;;;;5071828;28;20035;-75
2022/11/04 01:54:42;;;;;;;18.35;11.60;;;18.80;99.90;;;;;;5073696;28;20039;-74
2022/11/04 01:57:17;;;;;;;13.90;9.70;;;18.80;99.90;;;;;;5075359;28;20040;-74
2022/11/04 01:59:50;;;;;;;16.75;10.43;;;18.90;99.90;;;;;;5075393;28;20148;-74
2022/11/04 02:02:17;;;;;;;18.52;11.05;;;18.80;99.90;;;;;;5075254;28;20055;-74
2022/11/04 02:04:43;;;;;;;21.45;11.27;;;18.80;99.90;;;;;;5074838;28;20024;-73
2022/11/04 02:07:12;;;;;;;20.23;11.13;;;18.80;99.90;;;;;;5074695;28;20036;-73
2022/11/04 02:09:40;;;;;;;16.08;11.30;;;18.80;99.90;;;;;;5073301;28;20348;-74
2022/11/04 02:14:53;;;;;;;14.10;10.68;;;18.70;99.90;;;;;;5073802;28;20031;-74
2022/11/04 02:17:22;;;;;;;18.38;11.38;;;18.70;99.90;;;;;;5074615;28;20441;-73
2022/11/04 02:20:07;;;;;;;15.68;11.05;;;18.80;99.90;;;;;;5075022;28;20103;-74
2022/11/04 02:22:48;;;;;;;16.08;10.27;;;18.80;99.90;;;;;;5052873;28;20052;-74
2022/11/04 02:25:35;;;;;;;16.88;11.18;;;18.80;99.90;;;;;;5053068;28;20029;-74
2022/11/04 02:28:16;;;;;;;14.00;10.50;;;18.80;99.90;;;;;;5054788;28;20112;-74
2022/11/04 02:31:23;;;;;;;14.30;8.95;;;18.80;99.90;;;;;;5052915;28;20504;-75
2022/11/04 02:33:59;;;;;;;16.13;10.32;;;18.90;99.90;;;;;;5054774;28;20021;-73
2022/11/04 02:36:34;;;;;;;;;;;18.80;99.90;;;;;;5053269;28;20024;-74
2022/11/04 02:39:20;;;;;;;17.17;10.10;;;18.80;99.90;;;;;;5054584;28;19955;-73
2022/11/04 02:42:04;;;;;;;13.93;10.02;;;18.80;99.90;;;;;;5054322;28;20064;-74
2022/11/04 02:44:30;;;;;;;15.27;9.40;;;18.80;99.90;;;;;;5054511;28;20037;-74
2022/11/04 02:47:13;;;;;;;18.63;9.90;;;18.90;99.90;;;;;;5054048;28;20101;-74
2022/11/04 02:50:18;;;;;;;15.55;9.93;;;19.00;99.90;;;;;;5036222;28;20076;-73
2022/11/04 02:52:56;;;;;;;17.75;11.23;;;19.00;99.90;;;;;;5048358;28;20041;-74
2022/11/04 02:55:34;;;;;;;19.70;11.15;;;19.00;99.90;;;;;;5054331;28;20098;-73
2022/11/04 02:58:05;;;;;;;15.15;9.25;;;18.90;99.90;;;;;;5054061;28;20021;-73
2022/11/04 03:00:35;;;;;;;16.95;12.70;;;18.90;99.90;;;;;;5053963;28;20025;-74
2022/11/04 03:03:10;;;;;;;22.15;14.50;;;18.90;99.90;;;;;;5052499;28;20147;-74
2022/11/04 03:05:38;;;;;;;18.77;11.10;;;18.90;99.90;;;;;;5054036;28;20025;-74
2022/11/04 03:08:13;;;;;;;18.65;12.73;;;18.80;99.90;;;;;;5053690;28;20024;-73
2022/11/04 03:10:48;;;;;;;19.45;11.77;;;18.80;99.90;;;;;;5053783;28;20377;-74
2022/11/04 03:13:30;;;;;;;18.77;12.60;;;18.80;99.90;;;;;;5053896;28;20412;-73
2022/11/04 03:16:08;;;;;;;16.90;12.77;;;18.80;99.90;;;;;;5054069;28;20025;-74
2022/11/04 03:18:57;;;;;;;21.27;13.43;;;18.80;99.90;;;;;;5053989;28;20120;-74
2022/11/04 03:21:26;;;;;;;23.58;14.48;;;18.80;99.90;;;;;;5053848;28;20068;-73
2022/11/04 03:23:54;;;;;;;22.10;12.60;;;18.80;99.90;;;;;;5070134;28;20389;-73
2022/11/04 03:26:52;;;;;;;16.10;11.95;;;18.70;99.90;;;;;;5073237;28;20123;-75
2022/11/04 03:29:50;;;;;;;15.95;11.30;;;18.70;99.90;;;;;;5062485;28;20102;-75
2022/11/04 03:32:27;;;;;;;19.02;13.90;;;18.80;99.90;;;;;;5061886;28;20068;-74
2022/11/04 03:34:53;;;;;;;21.80;12.80;;;18.80;99.90;;;;;;5073034;28;20025;-74
2022/11/04 03:37:19;;;;;;;20.48;12.10;;;18.80;99.90;;;;;;5073074;28;20025;-73
2022/11/04 03:39:45;;;;;;;;;;;18.80;99.90;;;;;;5037595;28;20037;-74
2022/11/04 03:42:20;;;;;;;16.33;10.77;;;18.80;99.90;;;;;;5072426;28;19912;-73
2022/11/04 03:44:51;;;;;;;14.30;9.57;;;18.80;99.90;;;;;;5072686;28;20024;-74
2022/11/04 03:47:22;;;;;;;18.85;12.23;;;18.80;99.90;;;;;;5072270;28;20082;-74
2022/11/04 03:49:50;;;;;;;20.35;12.70;;;18.80;99.90;;;;;;5071990;28;20036;-73
2022/11/04 03:52:18;;;;;;;19.02;12.82;;;18.80;99.90;;;;;;5072078;28;20020;-74
2022/11/04 03:54:46;;;;;;;15.38;12.00;;;18.70;99.90;;;;;;5072199;28;20025;-74
2022/11/04 03:57:23;;;;;;;19.38;11.70;;;18.70;99.90;;;;;;5073127;28;20020;-73
2022/11/04 04:00:10;;;;;;;19.30;11.88;;;18.70;99.90;;;;;;5072933;28;20025;-74
2022/11/04 04:03:10;;;;;;;21.05;11.55;;;18.70;99.90;;;;;;5072296;28;20090;-74
2022/11/04 04:05:40;;;;;;;19.05;11.82;;;18.70;99.90;;;;;;5072879;28;20469;-74
2022/11/04 04:08:35;;;;;;;25.27;13.35;;;18.70;99.90;;;;;;5072803;28;20033;-73
2022/11/04 04:11:29;;;;;;;20.30;13.15;;;18.70;99.90;;;;;;5071509;28;20024;-74
2022/11/04 04:14:08;;;;;;;18.45;10.95;;;18.60;99.90;;;;;;5072878;28;20025;-73
2022/11/04 04:16:41;;;;;;;17.67;11.95;;;18.60;99.90;;;;;;5071413;28;20024;-74
2022/11/04 04:19:20;;;;;;;19.17;12.70;;;18.60;99.90;;;;;;5072387;28;20453;-74
2022/11/04 04:21:52;;;;;;;20.92;12.73;;;18.60;99.90;;;;;;5073086;28;20484;-73
2022/11/04 04:29:56;;;;;;;19.27;11.80;;;18.70;99.90;;;;;;5072690;28;20107;-74
2022/11/04 04:32:25;;;;;;;18.58;10.25;;;18.70;99.90;;;;;;5072651;28;20107;-74
2022/11/04 04:35:40;;;;;;;19.17;10.88;;;18.70;99.90;;;;;;5073119;28;20388;-74
2022/11/04 04:37:40;;;;;;;;;;;18.80;99.90;;;;;;5072291;28;20033;-74
2022/11/04 04:45:50;;;;;;;20.40;11.68;;;18.80;99.90;;;;;;5034654;28;20119;-74
2022/11/04 04:48:17;;;;;;;19.50;12.20;;;18.80;99.90;;;;;;5054975;28;20032;-75
2022/11/04 04:50:50;;;;;;;21.08;12.43;;;18.80;99.90;;;;;;5072980;28;20103;-71
2022/11/04 04:53:16;;;;;;;21.15;13.55;;;18.80;99.90;;;;;;5073552;28;20119;-74
2022/11/04 04:55:42;;;;;;;16.52;10.63;;;18.70;99.90;;;;;;5054094;28;20024;-75
2022/11/04 04:58:09;;;;;;;19.75;12.45;;;18.70;99.90;;;;;;5062307;28;20048;-73
2022/11/04 05:00:35;;;;;;;;;;;18.70;99.90;;;;;;5054970;28;20500;-75
2022/11/04 05:03:01;;;;;;;16.80;11.70;;;18.70;99.90;;;;;;5072245;28;19908;-75
2022/11/04 05:05:27;;;;;;;19.73;12.27;;;18.70;99.90;;;;;;5053564;28;20122;-72
2022/11/04 05:07:54;;;;;;;18.50;14.07;;;18.70;99.90;;;;;;5081945;28;20032;-74
2022/11/04 05:10:20;;;;;;;21.08;13.52;;;18.60;99.90;;;;;;5091555;28;20477;-72
2022/11/04 05:15:31;;;;;;;21.30;13.40;;;18.60;99.90;;;;;;5092783;28;20165;-75
2022/11/04 05:17:59;;;;;;;18.90;12.00;;;18.60;99.90;;;;;;5074987;28;20031;-75
2022/11/04 05:20:26;;;;;;;20.77;12.27;;;18.60;99.90;;;;;;5090160;28;20032;-74
2022/11/04 05:22:53;;;;;;;18.95;12.48;;;18.60;99.90;;;;;;5072759;28;20049;-75
2022/11/04 05:25:22;;;;;;;19.92;12.07;;;18.60;99.90;;;;;;5073323;28;20047;-74
2022/11/04 05:27:48;;;;;;;19.65;13.15;;;18.60;99.90;;;;;;5072782;28;20082;-75
2022/11/04 05:30:17;;;;;;;25.05;12.15;;;18.60;99.90;;;;;;5077344;28;20099;-75
2022/11/04 05:32:46;;;;;;;16.25;12.30;;;18.70;99.90;;;;;;5076837;28;20473;-75
2022/11/04 05:35:12;;;;;;;19.83;11.82;;;18.70;99.90;;;;;;5077557;28;20025;-75
2022/11/04 05:37:38;;;;;;;24.75;12.98;;;18.70;99.90;;;;;;5077363;28;20035;-74
2022/11/04 05:40:04;;;;;;;19.17;12.23;;;18.70;99.90;;;;;;5077030;28;20381;-75
2022/11/04 05:45:48;;;;;;;19.60;11.68;;;18.80;99.90;;;;;;5063396;28;20090;-74
2022/11/04 05:48:14;;;;;;;18.83;12.32;;;18.80;99.90;;;;;;5076866;28;20400;-75
2022/11/04 05:50:40;;;;;;;23.00;11.80;;;18.80;99.90;;;;;;5058355;28;20069;-74
2022/11/04 05:53:07;;;;;;;23.75;12.18;;;18.80;99.90;;;;;;5076550;28;20032;-75
2022/11/04 05:55:33;;;;;;;19.90;10.95;;;18.80;99.90;;;;;;5076769;28;20067;-75
2022/11/04 05:58:00;;;;;;;21.35;12.50;;;18.90;99.90;;;;;;5076153;28;20028;-75
2022/11/04 06:00:28;;;;;;;22.92;12.32;;;18.90;99.90;;;;;;5075060;28;20043;-75
2022/11/04 06:02:58;;;;;;;15.57;10.90;;;19.10;99.90;;;;;;5076089;28;20037;-75
2022/11/04 06:05:25;;;;;;;18.27;10.68;;;19.20;99.90;;;;;;5075725;28;20046;-73
2022/11/04 06:07:51;;;;;;;18.08;10.63;;;19.30;99.90;;;;;;5076123;28;20487;-73
2022/11/04 06:10:17;;;;;;;16.92;10.82;;;19.40;99.90;;;;;;5075804;28;20056;-74
2022/11/04 06:12:44;;;;;;;18.20;10.73;;;19.50;99.90;;;;;;5075937;28;20449;-74
2022/11/04 06:15:12;;;;;;;20.98;10.02;;;19.60;99.90;;;;;;5075845;28;20078;-69
2022/11/04 06:17:38;;;;;;;18.42;10.18;;;19.70;99.90;;;;;;5076297;28;20077;-74
2022/11/04 06:20:10;;;;;;;14.13;8.77;;;19.90;99.90;;;;;;5076372;28;20354;-74
2022/11/04 06:22:36;;;;;;;19.77;9.05;;;20.20;99.90;;;;;;5075808;28;20048;-74
2022/11/04 06:25:05;;;;;;;11.02;7.40;;;20.60;99.90;;;;;;5075066;28;20579;-73
2022/11/04 06:27:36;;;;;;;16.90;7.82;;;20.60;99.90;;;;;;5075843;28;20025;-73
2022/11/04 06:30:03;;;;;;;16.80;8.40;;;20.50;99.90;;;;;;5074848;28;20025;-75
2022/11/04 06:32:36;;;;;;;16.88;7.30;;;20.60;99.90;;;;;;5075463;28;20025;-79
2022/11/04 06:35:07;;;;;;;15.93;7.80;;;20.90;99.90;;;;;;5075102;28;20043;-76
2022/11/04 06:37:42;;;;;;;14.00;6.40;;;21.50;99.90;;;;;;5073555;28;20028;-74
2022/11/04 06:40:11;;;;;;;14.43;6.68;;;22.00;99.90;;;;;;5074507;28;20028;-81
2022/11/04 06:42:41;;;;;;;13.63;5.70;;;22.50;99.90;;;;;;5074981;28;20036;-82
2022/11/04 06:45:08;;;;;;;13.60;5.82;;;23.20;99.90;;;;;;5056531;28;20052;-81
2022/11/04 06:47:34;;;;;;;14.30;5.35;;;23.60;99.90;;;;;;5081618;22;20500;-81
2022/11/04 06:50:00;;;;;;;12.32;5.32;;;24.10;99.90;;;;;;5074949;28;20520;-81
2022/11/04 06:52:26;;;;;;;10.77;5.20;;;24.60;99.90;;;;;;5074007;28;20024;-81
2022/11/04 06:54:52;;;;;;;17.75;6.03;;;24.90;99.90;;;;;;5073907;28;20052;-81
2022/11/04 06:57:18;;;;;;;10.52;4.80;;;25.00;99.90;;;;;;5074258;28;20492;-81
2022/11/04 06:59:45;;;;;;;15.65;5.70;;;24.80;99.90;;;;;;5074146;28;20024;-79
2022/11/04 07:05:15;;;;;;;13.98;4.90;;;26.00;99.90;;;;;;5081573;22;20112;-83
2022/11/04 07:07:41;;;;;;;11.65;5.15;;;26.10;99.90;;;;;;5074414;28;20064;-85
2022/11/04 07:10:13;;;;;;;9.57;4.15;;;26.30;99.90;;;;;;5057943;28;20381;-87
2022/11/04 07:12:39;;;;;;;37.53;6.35;;;26.20;99.90;;;;;;5078815;28;20067;-88
2022/11/04 07:15:06;;;;;;;9.93;4.40;;;26.40;99.90;;;;;;5056210;28;20511;-88
2022/11/04 07:17:32;;;;;;;13.20;4.25;;;26.80;99.90;;;;;;5074740;28;20029;-88
2022/11/04 07:19:59;;;;;;;9.20;3.95;;;27.30;99.90;;;;;;5075510;28;20025;-87
2022/11/04 07:22:25;;;;;;;15.23;4.68;;;27.20;99.90;;;;;;5074160;28;20459;-88
2022/11/04 07:24:51;;;;;;;10.80;4.50;;;26.90;99.90;;;;;;5074155;28;20103;-87
2022/11/04 07:27:19;;;;;;;15.02;5.15;;;26.50;99.90;;;;;;5074450;28;20016;-88
2022/11/04 07:29:45;;;;;;;13.07;4.70;;;26.10;99.90;;;;;;5056065;28;20075;-84
2022/11/04 07:32:15;;;;;;;12.88;5.05;;;25.80;99.90;;;;;;5073487;28;20157;-85
2022/11/04 07:34:42;;;;;;;18.70;5.22;;;25.40;99.90;;;;;;5054740;28;20417;-87
2022/11/04 07:37:08;;;;;;;12.95;6.20;;;25.40;99.90;;;;;;5055467;28;20025;-87
2022/11/04 07:39:34;;;;;;;16.08;5.50;;;25.40;99.90;;;;;;5055102;28;20494;-83
2022/11/04 07:42:00;;;;;;;18.02;5.70;;;25.10;99.90;;;;;;5054906;28;20036;-84
2022/11/04 07:44:26;;;;;;;13.75;5.40;;;25.00;99.90;;;;;;5073445;28;20098;-87
2022/11/04 07:46:55;;;;;;;12.38;5.43;;;24.90;99.90;;;;;;5072970;28;20500;-87
2022/11/04 07:49:24;;;;;;;15.25;5.70;;;24.90;99.90;;;;;;5073012;28;20055;-87
2022/11/04 07:51:53;;;;;;;17.10;5.15;;;25.00;99.90;;;;;;5071775;28;20032;-86
2022/11/04 07:54:21;;;;;;;11.85;5.80;;;24.90;99.90;;;;;;5072951;28;20488;-86
2022/11/04 07:56:48;;;;;;;18.48;5.32;;;24.60;99.90;;;;;;5073165;28;20031;-87
2022/11/04 07:59:15;;;;;;;12.80;5.53;;;24.70;99.90;;;;;;5055171;28;20029;-86
2022/11/04 08:01:42;;;;;;;15.00;5.60;;;24.90;99.90;;;;;;5073305;28;20094;-86
2022/11/04 08:04:14;;;;;;;11.20;5.65;;;25.10;99.90;;;;;;5072920;28;20076;-87
2022/11/04 08:06:41;;;;;;;12.48;4.85;;;25.30;99.90;;;;;;5056285;28;20652;-87
2022/11/04 08:09:08;;;;;;;13.10;4.75;;;25.40;99.90;;;;;;5054435;28;20032;-87
2022/11/04 08:11:35;;;;;;;13.05;4.97;;;25.40;99.90;;;;;;5072566;28;20429;-87
2022/11/04 08:14:05;;;;;;;13.48;5.00;;;25.30;99.90;;;;;;5072620;28;20059;-86
2022/11/04 08:16:31;;;;;;;16.50;5.28;;;25.30;99.90;;;;;;5071861;28;20056;-86
2022/11/04 08:19:01;;;;;;;14.63;5.40;;;25.30;99.90;;;;;;5072482;28;20459;-86
2022/11/04 08:21:30;;;;;;;10.88;5.38;;;25.40;99.90;;;;;;5072152;28;20116;-86
2022/11/04 08:23:57;;;;;;;11.40;5.03;;;25.40;99.90;;;;;;5054932;28;20082;-86
2022/11/04 08:26:23;;;;;;;12.57;5.88;;;25.40;99.90;;;;;;5072189;28;20031;-86
2022/11/04 08:28:50;;;;;;;11.25;5.20;;;25.60;99.90;;;;;;5072528;28;20024;-86
2022/11/04 08:31:27;;;;;;;17.10;5.85;;;25.50;99.90;;;;;;5072613;28;20099;-84
2022/11/04 08:33:54;;;;;;;10.52;5.25;;;25.30;99.90;;;;;;5054111;28;20031;-86
2022/11/04 08:36:26;;;;;;;14.85;5.43;;;25.20;99.90;;;;;;5072466;28;20154;-85
2022/11/04 08:38:53;;;;;;;10.57;4.90;;;25.50;99.90;;;;;;5072431;28;20020;-86
2022/11/04 08:41:25;;;;;;;10.88;5.70;;;25.70;99.90;;;;;;5072589;28;20036;-85
2022/11/04 08:43:51;;;;;;;16.35;4.60;;;25.80;99.90;;;;;;5071680;28;20017;-85
2022/11/04 08:46:18;;;;;;;8.93;4.50;;;26.00;99.90;;;;;;5053846;28;20488;-86
2022/11/04 08:48:45;;;;;;;14.48;4.75;;;26.00;99.90;;;;;;5054177;28;20333;-86
2022/11/04 08:51:19;;;;;;;11.52;4.68;;;26.00;99.90;;;;;;5071294;28;20067;-86
2022/11/04 08:53:47;;;;;;;11.75;4.43;;;26.00;99.90;;;;;;5070994;28;20052;-86
2022/11/04 08:56:38;;;;;;;12.18;4.32;;;26.00;99.90;;;;;;5071435;28;20028;-87
2022/11/04 08:59:05;;;;;;;13.60;4.78;;;25.80;99.90;;;;;;5052911;28;20186;-87
2022/11/04 09:01:34;;;;;;;17.65;8.98;;;25.90;99.90;;;;;;5070765;28;20085;-86
2022/11/04 09:04:00;;;;;;;12.40;5.38;;;26.10;99.90;;;;;;5071582;28;20465;-86
2022/11/04 09:06:30;;;;;;;15.07;4.60;;;26.20;99.90;;;;;;5071413;28;20023;-86
2022/11/04 09:09:01;;;;;;;14.35;4.78;;;26.20;99.90;;;;;;5070926;28;20107;-85
2022/11/04 09:11:46;;;;;;;9.57;4.50;;;26.20;99.90;;;;;;5070995;28;20035;-86
2022/11/04 09:14:13;;;;;;;13.55;4.30;;;26.20;99.90;;;;;;5070654;28;20107;-86
2022/11/04 09:16:41;;;;;;;13.80;4.60;;;26.10;99.90;;;;;;5070891;28;20032;-86
2022/11/04 09:19:07;;;;;;;10.18;4.95;;;26.10;99.90;;;;;;5053369;28;20028;-86
2022/11/04 09:21:33;;;;;;;14.00;4.80;;;26.00;99.90;;;;;;5071529;28;20106;-87
2022/11/04 09:23:59;;;;;;;14.88;5.00;;;25.70;99.90;;;;;;5071374;28;20090;-87
2022/11/04 09:26:27;;;;;;;15.95;5.50;;;25.70;99.90;;;;;;5071599;28;20024;-87
2022/11/04 09:28:57;;;;;;;13.43;5.10;;;25.60;99.90;;;;;;5072034;28;20051;-89
2022/11/04 09:31:25;;;;;;;13.23;5.03;;;25.50;99.90;;;;;;5071702;28;20029;-85
2022/11/04 09:33:54;;;;;;;17.23;4.93;;;25.50;99.90;;;;;;5071515;28;20033;-84
2022/11/04 09:36:22;;;;;;;15.60;5.47;;;25.60;99.90;;;;;;5071335;28;20048;-85
2022/11/04 09:38:48;;;;;;;17.77;5.05;;;25.50;99.90;;;;;;5071434;28;20067;-85
2022/11/04 09:41:18;;;;;;;13.80;5.40;;;25.20;99.90;;;;;;5070611;28;20072;-85
2022/11/04 09:44:04;;;;;;;16.05;5.40;;;25.30;99.90;;;;;;5071616;28;20028;-84
2022/11/04 09:46:33;;;;;;;18.00;5.03;;;25.40;99.90;;;;;;5071637;28;20123;-87
2022/11/04 09:49:02;;;;;;;16.30;5.55;;;25.50;99.90;;;;;;5072226;28;20027;-85
2022/11/04 09:51:29;;;;;;;15.80;5.85;;;25.30;99.90;;;;;;5073389;28;20021;-86
2022/11/04 09:53:59;;;;;;;15.00;5.32;;;25.40;99.90;;;;;;5071004;28;20021;-87
2022/11/04 09:56:38;;;;;;;14.98;5.72;;;25.60;99.90;;;;;;5071755;28;20037;-86
2022/11/04 09:59:05;;;;;;;15.25;5.18;;;25.60;99.90;;;;;;5071144;28;20134;-83
2022/11/04 10:01:43;;;;;;;13.32;5.03;;;25.60;99.90;;;;;;5070803;28;20043;-86
2022/11/04 10:04:35;;;;;;;13.85;4.80;;;25.90;99.90;;;;;;5070738;28;20045;-87
2022/11/04 10:07:18;;;;;;;14.07;5.22;;;26.00;99.90;;;;;;5062788;28;20051;-84
2022/11/04 10:10:10;;;;;;;12.93;5.13;;;26.20;99.90;;;;;;5070780;28;20069;-86
2022/11/04 10:12:49;;;;;;;13.80;5.38;;;26.30;99.90;;;;;;5071173;28;20047;-86
2022/11/04 10:15:58;;;;;;;16.85;4.57;;;26.40;99.90;;;;;;5072928;28;20025;-85
2022/11/04 10:18:26;;;;;;;10.85;4.43;;;26.40;99.90;;;;;;5047870;28;20033;-85
2022/11/04 10:21:18;;;;;;;26.67;5.90;;;26.40;99.90;;;;;;5074052;28;20032;-83
2022/11/04 10:24:21;;;;;;;15.60;4.20;;;26.40;99.90;;;;;;5063284;28;20059;-85
2022/11/04 10:27:20;;;;;;;10.50;4.00;;;26.00;99.90;;;;;;5074323;28;20399;-86
2022/11/04 10:30:02;;;;;;;10.95;4.35;;;26.20;99.90;;;;;;5072088;28;20123;-83
2022/11/04 10:32:52;;;;;;;11.63;3.65;;;26.30;99.90;;;;;;5073804;28;20021;-83
2022/11/04 10:35:27;;;;;;;15.32;3.85;;;26.40;99.90;;;;;;5073668;28;20017;-78
2022/11/04 10:38:16;;;;;;;17.57;4.43;;;26.30;99.90;;;;;;5073979;28;20032;-80
2022/11/04 10:40:46;;;;;;;15.35;5.03;;;26.10;99.90;;;;;;5073609;28;20706;-82
2022/11/04 10:43:20;;;;;;;17.52;4.88;;;26.00;99.90;;;;;;5038946;28;20142;-80
2022/11/04 10:49:31;;;;;;;14.00;4.68;;;25.80;99.90;;;;;;5073907;28;20046;-82
2022/11/04 10:51:58;;;;;;;12.32;5.30;;;25.60;99.90;;;;;;5073241;28;20460;-82
2022/11/04 10:54:42;;;;;;;15.80;4.70;;;25.40;99.90;;;;;;5073636;28;20440;-82
2022/11/04 10:57:10;;;;;;;12.32;4.40;;;25.50;99.90;;;;;;5073013;28;20025;-83
2022/11/04 11:00:02;;;;;;;15.18;4.53;;;25.50;99.90;;;;;;5073115;28;20124;-80
2022/11/04 11:02:48;;;;;;;18.10;5.43;;;25.60;99.90;;;;;;5073212;28;20028;-80
2022/11/04 11:05:26;;;;;;;14.40;4.60;;;25.70;99.90;;;;;;5073076;28;20094;-84
2022/11/04 11:07:57;;;;;;;14.65;3.95;;;25.70;99.90;;;;;;5070091;28;20529;-83
2022/11/04 11:10:49;;;;;;;13.23;4.55;;;25.80;99.90;;;;;;5055171;28;20028;-84
2022/11/04 11:13:26;;;;;;;15.23;4.32;;;25.80;99.90;;;;;;5073488;28;20032;-81
2022/11/04 11:16:06;;;;;;;14.75;4.07;;;26.00;99.90;;;;;;5072722;28;20032;-81
2022/11/04 11:18:32;;;;;;;15.00;4.47;;;26.10;99.90;;;;;;5054505;28;20031;-82
2022/11/04 11:21:12;;;;;;;16.02;4.10;;;25.90;99.90;;;;;;5073313;28;20055;-81
2022/11/04 11:23:48;;;;;;;13.85;3.90;;;26.00;99.90;;;;;;5055322;28;20123;-82
2022/11/04 11:26:19;;;;;;;13.70;3.93;;;26.10;99.90;;;;;;5072806;28;20043;-85
2022/11/04 11:28:51;;;;;;;14.20;4.40;;;26.10;99.90;;;;;;5072873;28;20035;-83
2022/11/04 11:31:25;;;;;;;13.45;3.92;;;26.00;99.90;;;;;;5072788;28;20048;-84
2022/11/04 11:33:56;;;;;;;14.30;4.43;;;25.90;99.90;;;;;;5073174;28;20491;-82
2022/11/04 11:36:30;;;;;;;11.23;3.85;;;26.10;99.90;;;;;;5055401;28;20031;-83
2022/11/04 11:39:41;;;;;;;12.75;4.00;;;26.30;99.90;;;;;;5073180;28;20119;-84
2022/11/04 11:42:11;;;;;;;12.43;3.90;;;26.60;99.90;;;;;;5069839;28;20416;-80
2022/11/04 11:44:55;;;;;;;11.55;3.65;;;26.90;99.90;;;;;;5073418;28;20047;-82
2022/11/04 11:47:40;;;;;;;17.55;3.80;;;26.90;99.90;;;;;;5073302;28;20090;-81
2022/11/04 11:50:10;;;;;;;20.05;4.93;;;27.00;99.90;;;;;;5072565;28;20016;-80
2022/11/04 11:52:37;;;;;;;15.57;4.05;;;26.60;99.90;;;;;;5072417;28;20449;-88
2022/11/04 11:55:27;;;;;;;18.20;4.57;;;26.70;99.90;;;;;;5071909;28;20310;-82
2022/11/04 11:58:04;;;;;;;13.85;4.43;;;26.80;99.90;;;;;;5053793;28;20069;-81
2022/11/04 12:00:35;;;;;;;13.80;3.88;;;26.80;99.90;;;;;;5053890;28;20055;-82
2022/11/04 12:03:45;;;;;;;13.73;3.97;;;26.80;99.90;;;;;;5071689;28;20028;-85
2022/11/04 12:06:40;;;;;;;13.13;4.32;;;26.80;99.90;;;;;;5009663;28;20456;-84
2022/11/04 12:09:49;;;;;;;14.10;4.20;;;26.80;99.90;;;;;;5010330;28;20030;-83
2022/11/04 12:12:40;;;;;;;14.32;3.72;;;26.60;99.90;;;;;;4951527;29;20110;-83
2022/11/04 12:15:36;;;;;;;16.13;3.80;;;26.20;99.90;;;;;;4952185;29;20175;-84
2022/11/04 12:18:33;;;;;;;18.67;4.40;;;26.30;99.90;;;;;;4901961;29;20065;-82
2022/11/04 12:21:08;;;;;;;14.63;4.57;;;26.30;99.90;;;;;;4951749;29;20075;-82
2022/11/04 12:24:06;;;;;;;18.23;4.85;;;25.90;99.90;;;;;;4951648;29;20066;-82
2022/11/04 12:30:17;;;;;;;14.35;4.80;;;25.60;99.90;;;;;;4952416;29;20074;-82
2022/11/04 12:32:50;;;;;;;14.93;4.55;;;25.40;99.90;;;;;;4952170;29;20427;-83
2022/11/04 12:35:31;;;;;;;15.98;4.57;;;25.10;99.90;;;;;;4952354;29;20126;-83
2022/11/04 12:38:09;;;;;;;18.40;5.15;;;25.00;99.90;;;;;;4952044;28;20031;-82
2022/11/04 12:41:13;;;;;;;14.60;4.57;;;25.00;99.90;;;;;;4952530;29;20494;-83
2022/11/04 12:44:12;;;;;;;18.65;4.90;;;25.00;99.90;;;;;;4988512;28;20483;-83
2022/11/04 12:46:47;;;;;;;15.32;4.88;;;24.90;99.90;;;;;;5049312;28;20383;-84
2022/11/04 12:49:50;;;;;;;14.95;4.50;;;24.90;99.90;;;;;;5071949;28;20444;-81
2022/11/04 12:52:31;;;;;;;13.07;4.60;;;24.80;99.90;;;;;;5072309;28;20031;-81
2022/11/04 12:55:18;;;;;;;17.02;5.10;;;24.80;99.90;;;;;;5072456;28;20108;-81
2022/11/04 12:58:03;;;;;;;21.48;4.93;;;24.60;99.90;;;;;;5072582;28;20025;-80
2022/11/04 13:00:31;;;;;;;13.70;5.20;;;24.70;99.90;;;;;;5072337;28;20033;-81
2022/11/04 13:03:04;;;;;;;18.88;5.03;;;24.60;99.90;;;;;;5072634;28;20036;-82
2022/11/04 13:06:04;;;;;;;21.38;5.25;;;24.50;99.90;;;;;;5071187;28;20075;-81
2022/11/04 13:08:48;;;;;;;21.30;4.70;;;24.60;99.90;;;;;;5072495;28;20539;-79
2022/11/04 13:11:24;;;;;;;15.48;4.78;;;24.70;99.90;;;;;;5072582;28;20024;-79
2022/11/04 13:14:31;;;;;;;18.30;5.45;;;24.70;99.90;;;;;;5053898;28;20484;-79
2022/11/04 13:17:00;;;;;;;16.48;4.80;;;24.70;99.90;;;;;;5072533;28;20028;-79
2022/11/04 13:19:50;;;;;;;16.48;4.85;;;24.80;99.90;;;;;;5072577;28;20150;-79
2022/11/04 13:22:44;;;;;;;19.23;5.10;;;24.90;99.90;;;;;;5053960;28;20127;-78
2022/11/04 13:25:32;;;;;;;16.42;4.68;;;24.80;99.90;;;;;;5054356;28;20027;-80
2022/11/04 13:28:01;;;;;;;15.75;4.60;;;24.90;99.90;;;;;;5072752;28;20021;-79
2022/11/04 13:30:50;;;;;;;25.02;5.63;;;24.80;99.90;;;;;;5072922;28;20024;-80
2022/11/04 13:33:54;;;;;;;17.27;4.80;;;24.80;99.90;;;;;;5072472;28;20064;-80
2022/11/04 13:36:45;;;;;;;12.20;4.82;;;24.70;99.90;;;;;;5072729;28;20066;-81
2022/11/04 13:39:41;;;;;;;18.45;4.95;;;24.60;99.90;;;;;;5054459;28;20392;-81
2022/11/04 13:42:26;;;;;;;18.20;4.75;;;24.50;99.90;;;;;;5072867;28;20039;-82
2022/11/04 13:44:58;;;;;;;17.90;4.95;;;24.40;99.90;;;;;;5072302;28;20033;-80
2022/11/04 13:47:37;;;;;;;12.77;5.00;;;24.40;99.90;;;;;;5073478;28;20154;-81
2022/11/04 13:50:05;;;;;;;16.45;5.45;;;24.30;99.90;;;;;;5073514;28;20020;-82
2022/11/04 13:52:35;;;;;;;15.68;5.22;;;24.30;99.90;;;;;;5075428;28;20067;-80
2022/11/04 13:55:18;;;;;;;18.48;5.20;;;24.20;99.90;;;;;;5075536;28;20174;-81